Trident Challenger — V7TY7 — position and weather

sailwx.info

Track history (hours):
 
Tides and Currents Weather Stations Pressure Air Temp Water Temp Dewpoint Dewpoint Depression Visibility Wind Speed Wind Dir Waves Ship Positions

Trident Challenger

Last reported at 2015-Jul-06 06:33 UTC. Time now 2015-Jul-06 07:09 UTC.
Position N 51°06' E 003°45'.

Length 189 m; draft 9.9 m.

Type: Cargo ship. MMSI: 538003908.

Date/timePositionNaut miles runAvg speedWind from/ knotsBaromVisibWave heightAir tempDewpointWater temp
2015-Jul-06 06:33N 51°06' E 003°45'0 0.0
2015-Jul-06 05:33N 51°06' E 003°45'0 0.0
2015-Jul-06 04:31N 51°06' E 003°45'0 0.0
2015-Jul-06 03:25N 51°06' E 003°45'0 0.0
2015-Jul-06 02:31N 51°06' E 003°45'0 0.0
2015-Jul-06 01:31N 51°06' E 003°45'0 0.0
2015-Jul-06 00:28N 51°06' E 003°45'0 0.0
2015-Jul-05 23:31N 51°06' E 003°45'0 0.0
2015-Jul-05 22:33N 51°06' E 003°45'0 0.0
2015-Jul-05 21:33N 51°06' E 003°45'0 0.0
2015-Jul-05 20:34N 51°06' E 003°45'0 0.0
2015-Jul-05 19:32N 51°06' E 003°45'0 0.0
2015-Jul-05 18:33N 51°06' E 003°45'0 0.0
2015-Jul-05 17:32N 51°06' E 003°45'0 0.0
2015-Jul-05 16:32N 51°06' E 003°45'0 0.0
2015-Jul-05 15:33N 51°06' E 003°45'0 0.0
2015-Jul-05 14:33N 51°06' E 003°45'0 0.0
2015-Jul-05 13:30N 51°06' E 003°45'0 0.0
2015-Jul-05 12:30N 51°06' E 003°45'0 0.0
2015-Jul-05 11:31N 51°06' E 003°45'0 0.0
2015-Jul-05 10:30N 51°06' E 003°45'0 0.0
2015-Jul-05 09:34N 51°06' E 003°45'0 0.0
2015-Jul-05 08:32N 51°06' E 003°45'0 0.0
2015-Jul-05 07:31N 51°06' E 003°45'0 0.0
2015-Jul-05 06:31N 51°06' E 003°45'0 0.0
2015-Jul-05 05:31N 51°06' E 003°45'0 0.0
2015-Jul-05 04:31N 51°06' E 003°45'0 0.0
2015-Jul-05 03:31N 51°06' E 003°45'0 0.0
2015-Jul-05 02:31N 51°06' E 003°45'0 0.0
2015-Jul-05 01:31N 51°06' E 003°45'0 0.0
2015-Jul-05 00:32N 51°06' E 003°45'0 0.0
2015-Jul-04 23:34N 51°06' E 003°45'0 0.0
2015-Jul-04 22:31N 51°06' E 003°45'0 0.0
2015-Jul-04 21:32N 51°06' E 003°45'0 0.0
2015-Jul-04 20:34N 51°06' E 003°45'0 0.0
2015-Jul-04 19:32N 51°06' E 003°45'0 0.0
2015-Jul-04 18:30N 51°06' E 003°45'3 3.2
2015-Jul-04 17:33N 51°09' E 003°47'5 5.2
2015-Jul-04 16:33N 51°14' E 003°48'5 4.9
2015-Jul-04 15:33N 51°19' E 003°50'1 1.5
2015-Jul-04 14:33N 51°20' E 003°49'2 2.0
2015-Jul-04 13:33N 51°21' E 003°46'8 7.6
2015-Jul-04 12:33N 51°26' E 003°37'9 8.7
2015-Jul-04 11:33N 51°24' E 003°23'1211.8
2015-Jul-04 10:33N 51°24' E 003°04'1110.5
2015-Jul-04 09:33N 51°22' E 002°48'7 6.8
2015-Jul-04 08:33N 51°22' E 002°37'3 2.8
2015-Jul-04 07:28N 51°25' E 002°35'0 0.2
2015-Jul-04 06:31N 51°25' E 002°35'6 6.1
2015-Jul-04 05:33N 51°21' E 002°28'1312.7
2015-Jul-04 04:34N 51°15' E 002°10'1413.6
2015-Jul-04 03:34N 51°08' E 001°52'6 5.6
2015-Jul-04 02:33N 51°03' E 001°52'9 9.0
2015-Jul-04 01:31N 51°03' E 002°07'9 9.3
2015-Jul-04 00:33N 51°04' E 002°21'2 1.7
2015-Jul-03 23:33N 51°03' E 002°19'1 1.0
2015-Jul-03 22:32N 51°03' E 002°17'0 0.0
2015-Jul-03 21:26N 51°03' E 002°17'0 0.0
2015-Jul-03 20:26N 51°03' E 002°17'0 0.0
2015-Jul-03 19:32N 51°03' E 002°17'0 0.0
2015-Jul-03 18:32N 51°03' E 002°17'0 0.0
2015-Jul-03 17:32N 51°03' E 002°17'0 0.0
2015-Jul-03 16:32N 51°03' E 002°17'0 0.0
2015-Jul-03 15:29N 51°03' E 002°17'0 0.0
2015-Jul-03 14:32N 51°03' E 002°17'0 0.0
2015-Jul-03 13:29N 51°03' E 002°17'0 0.0
2015-Jul-03 12:29N 51°03' E 002°17'0 0.0
2015-Jul-03 11:29N 51°03' E 002°17'0 0.0
2015-Jul-03 10:05N 51°03' E 002°17'0 0.0
2015-Jul-03 09:32N 51°03' E 002°17'0 0.0
2015-Jul-03 08:32N 51°03' E 002°17'0 0.0
2015-Jul-03 07:32N 51°03' E 002°17'0 0.0
2015-Jul-03 06:32N 51°03' E 002°17'0 0.0
2015-Jul-03 05:32N 51°03' E 002°17'0 0.0
2015-Jul-03 04:26N 51°03' E 002°17'0 0.0
2015-Jul-03 03:26N 51°03' E 002°17'0 0.0
2015-Jul-03 02:20N 51°03' E 002°17'0 0.0
2015-Jul-03 01:32N 51°03' E 002°17'0 0.0
2015-Jul-03 00:14N 51°03' E 002°17'0 0.0
2015-Jul-02 18:23N 51°03' E 002°17'0 0.0
2015-Jul-02 16:32N 51°03' E 002°17'0 0.0
2015-Jul-02 15:29N 51°03' E 002°17'0 0.0
2015-Jul-02 14:29N 51°03' E 002°17'0 0.0
2015-Jul-02 13:32N 51°03' E 002°17'0 0.0
2015-Jul-02 12:29N 51°03' E 002°17'0 0.0
2015-Jul-02 11:32N 51°03' E 002°17'0 0.0
2015-Jul-02 10:32N 51°03' E 002°17'0 0.0
2015-Jul-02 09:32N 51°03' E 002°17'0 0.0
2015-Jul-02 08:32N 51°03' E 002°17'0 0.0
2015-Jul-02 07:32N 51°03' E 002°17'0 0.0
2015-Jul-02 06:32N 51°03' E 002°17'0 0.0
2015-Jul-02 05:32N 51°03' E 002°17'0 0.0
2015-Jul-02 04:32N 51°03' E 002°17'0 0.0
2015-Jul-02 03:32N 51°03' E 002°17'0 0.0
2015-Jul-02 02:29N 51°03' E 002°17'0 0.0
2015-Jul-01 22:08N 51°03' E 002°17'0 0.0
2015-Jul-01 20:20N 51°03' E 002°17'0 0.0
2015-Jul-01 18:23N 51°03' E 002°17'0 0.0
2015-Jul-01 16:17N 51°03' E 002°17'0 0.2
2015-Jul-01 15:06N 51°03' E 002°17'7 2.1
2015-Jul-01 11:29N 51°03' E 002°05'1111.4
2015-Jul-01 10:33N 51°03' E 001°48'0 0.5
2015-Jul-01 09:32N 51°04' E 001°48'0 0.3
2015-Jul-01 08:33N 51°04' E 001°48'0 0.0
2015-Jul-01 07:32N 51°04' E 001°48'0 0.0
2015-Jul-01 06:32N 51°04' E 001°48'0 0.0
2015-Jul-01 05:33N 51°04' E 001°48'0 0.0
2015-Jul-01 04:33N 51°04' E 001°48'0 0.0
2015-Jul-01 03:33N 51°04' E 001°48'0 0.2
2015-Jul-01 02:32N 51°04' E 001°48'0 0.1
2015-Jul-01 01:29N 51°04' E 001°48'1 0.8
2015-Jul-01 00:33N 51°04' E 001°47'6 6.3
2015-Jun-30 23:33N 51°07' E 001°39'8 7.6
2015-Jun-30 22:33N 51°14' E 001°45'1110.6
2015-Jun-30 21:33N 51°23' E 001°53'1212.4
2015-Jun-30 20:33N 51°33' E 002°06'1313.4
2015-Jun-30 19:33N 51°43' E 002°20'2013.3
2015-Jun-30 18:05N 51°58' E 002°41'1912.1
2015-Jun-30 16:30N 52°13' E 003°01'1110.9
2015-Jun-30 15:32N 52°23' E 003°05'1210.5
2015-Jun-30 14:23N 52°35' E 003°08'910.1
2015-Jun-30 13:30N 52°43' E 003°11'1010.2
2015-Jun-30 12:33N 52°53' E 003°15'1110.9
2015-Jun-30 11:32N 53°04' E 003°20'1211.6
2015-Jun-30 10:31N 53°15' E 003°26'1211.8
2015-Jun-30 09:32N 53°26' E 003°31'1111.8
2015-Jun-30 08:33N 53°37' E 003°37'1110.9
2015-Jun-30 07:33N 53°46' E 003°47'1211.3
2015-Jun-30 06:31N 53°53' E 004°03'1111.0
2015-Jun-30 05:31N 53°60' E 004°18'1111.1
2015-Jun-30 04:33N 54°09' E 004°26'1111.3
2015-Jun-30 03:33N 54°20' E 004°34'1211.5
2015-Jun-30 02:33N 54°30' E 004°43'28410.5
2015-Jun-28 23:24N 57°47' E 010°50'8 9.4
2015-Jun-28 22:33N 57°41' E 010°60'1211.5
2015-Jun-28 21:32N 57°33' E 011°16'1111.5
2015-Jun-28 20:33N 57°24' E 011°28'1111.4
2015-Jun-28 19:33N 57°13' E 011°35'1111.3
2015-Jun-28 18:33N 57°02' E 011°42'1111.3
2015-Jun-28 17:33N 56°52' E 011°49'1010.0
2015-Jun-28 16:33N 56°42' E 011°50'1211.5
2015-Jun-28 15:32N 56°32' E 011°39'7710.6
2015-Jun-28 08:14N 55°17' E 011°04'6 9.2
2015-Jun-28 07:33N 55°11' E 011°02'2811.3
2015-Jun-28 05:04N 54°44' E 010°47'510.7
2015-Jun-28 04:33N 54°39' E 010°51'1111.0
2015-Jun-28 03:33N 54°35' E 011°09'1110.8
2015-Jun-28 02:33N 54°31' E 011°27'1110.8
2015-Jun-28 01:33N 54°27' E 011°44'1110.6
2015-Jun-28 00:33N 54°26' E 012°02'9 9.2
2015-Jun-27 23:33N 54°32' E 012°14'20 9.7
2015-Jun-27 21:32N 54°46' E 012°38'4911.6
2015-Jun-27 17:19N 55°03' E 013°58'1111.2
2015-Jun-27 16:19N 55°10' E 014°13'911.6
2015-Jun-27 15:33N 55°17' E 014°23'1211.6
2015-Jun-27 14:33N 55°26' E 014°36'1010.5
2015-Jun-27 13:33N 55°27' E 014°54'1211.6
2015-Jun-27 12:33N 55°28' E 015°14'1211.6
2015-Jun-27 11:34N 55°28' E 015°35'1111.4
2015-Jun-27 10:33N 55°29' E 015°55'5711.3
2015-Jun-27 05:33N 55°31' E 017°35'1111.4
2015-Jun-27 04:33N 55°33' E 017°55'1111.4
2015-Jun-27 03:33N 55°34' E 018°15'1111.3
2015-Jun-27 02:33N 55°36' E 018°34'1110.6
2015-Jun-27 01:33N 55°36' E 018°53'1111.3
2015-Jun-27 00:33N 55°37' E 019°13'1211.6
2015-Jun-26 23:33N 55°39' E 019°33'1211.6
2015-Jun-26 22:33N 55°40' E 019°54'1211.6
2015-Jun-26 21:30N 55°41' E 020°15'1111.5
2015-Jun-26 20:33N 55°42' E 020°34'  
Track history (hours):
 
Tides and Currents Weather Stations Pressure Air Temp Water Temp Dewpoint Dewpoint Depression Visibility Wind Speed Wind Dir Waves Ship Positions

Trident Challenger

Last reported at 2015-Jul-06 06:33 UTC. Time now 2015-Jul-06 07:09 UTC.
Position N 51°06' E 003°45'.

Length 189 m; draft 9.9 m.

Type: Cargo ship. MMSI: 538003908.

Date/timePositionNaut miles runAvg speedWind from/ knotsBaromVisibWave heightAir tempDewpointWater temp
2015-Jul-06 06:33N 51°06' E 003°45'0 0.0
2015-Jul-06 05:33N 51°06' E 003°45'0 0.0
2015-Jul-06 04:31N 51°06' E 003°45'0 0.0
2015-Jul-06 03:25N 51°06' E 003°45'0 0.0
2015-Jul-06 02:31N 51°06' E 003°45'0 0.0
2015-Jul-06 01:31N 51°06' E 003°45'0 0.0
2015-Jul-06 00:28N 51°06' E 003°45'0 0.0
2015-Jul-05 23:31N 51°06' E 003°45'0 0.0
2015-Jul-05 22:33N 51°06' E 003°45'0 0.0
2015-Jul-05 21:33N 51°06' E 003°45'0 0.0
2015-Jul-05 20:34N 51°06' E 003°45'0 0.0
2015-Jul-05 19:32N 51°06' E 003°45'0 0.0
2015-Jul-05 18:33N 51°06' E 003°45'0 0.0
2015-Jul-05 17:32N 51°06' E 003°45'0 0.0
2015-Jul-05 16:32N 51°06' E 003°45'0 0.0
2015-Jul-05 15:33N 51°06' E 003°45'0 0.0
2015-Jul-05 14:33N 51°06' E 003°45'0 0.0
2015-Jul-05 13:30N 51°06' E 003°45'0 0.0
2015-Jul-05 12:30N 51°06' E 003°45'0 0.0
2015-Jul-05 11:31N 51°06' E 003°45'0 0.0
2015-Jul-05 10:30N 51°06' E 003°45'0 0.0
2015-Jul-05 09:34N 51°06' E 003°45'0 0.0
2015-Jul-05 08:32N 51°06' E 003°45'0 0.0
2015-Jul-05 07:31N 51°06' E 003°45'0 0.0
2015-Jul-05 06:31N 51°06' E 003°45'0 0.0
2015-Jul-05 05:31N 51°06' E 003°45'0 0.0
2015-Jul-05 04:31N 51°06' E 003°45'0 0.0
2015-Jul-05 03:31N 51°06' E 003°45'0 0.0
2015-Jul-05 02:31N 51°06' E 003°45'0 0.0
2015-Jul-05 01:31N 51°06' E 003°45'0 0.0
2015-Jul-05 00:32N 51°06' E 003°45'0 0.0
2015-Jul-04 23:34N 51°06' E 003°45'0 0.0
2015-Jul-04 22:31N 51°06' E 003°45'0 0.0
2015-Jul-04 21:32N 51°06' E 003°45'0 0.0
2015-Jul-04 20:34N 51°06' E 003°45'0 0.0
2015-Jul-04 19:32N 51°06' E 003°45'0 0.0
2015-Jul-04 18:30N 51°06' E 003°45'3 3.2
2015-Jul-04 17:33N 51°09' E 003°47'5 5.2
2015-Jul-04 16:33N 51°14' E 003°48'5 4.9
2015-Jul-04 15:33N 51°19' E 003°50'1 1.5
2015-Jul-04 14:33N 51°20' E 003°49'2 2.0
2015-Jul-04 13:33N 51°21' E 003°46'8 7.6
2015-Jul-04 12:33N 51°26' E 003°37'9 8.7
2015-Jul-04 11:33N 51°24' E 003°23'1211.8
2015-Jul-04 10:33N 51°24' E 003°04'1110.5
2015-Jul-04 09:33N 51°22' E 002°48'7 6.8
2015-Jul-04 08:33N 51°22' E 002°37'3 2.8
2015-Jul-04 07:28N 51°25' E 002°35'0 0.2
2015-Jul-04 06:31N 51°25' E 002°35'6 6.1
2015-Jul-04 05:33N 51°21' E 002°28'1312.7
2015-Jul-04 04:34N 51°15' E 002°10'1413.6
2015-Jul-04 03:34N 51°08' E 001°52'6 5.6
2015-Jul-04 02:33N 51°03' E 001°52'9 9.0
2015-Jul-04 01:31N 51°03' E 002°07'9 9.3
2015-Jul-04 00:33N 51°04' E 002°21'2 1.7
2015-Jul-03 23:33N 51°03' E 002°19'1 1.0
2015-Jul-03 22:32N 51°03' E 002°17'0 0.0
2015-Jul-03 21:26N 51°03' E 002°17'0 0.0
2015-Jul-03 20:26N 51°03' E 002°17'0 0.0
2015-Jul-03 19:32N 51°03' E 002°17'0 0.0
2015-Jul-03 18:32N 51°03' E 002°17'0 0.0
2015-Jul-03 17:32N 51°03' E 002°17'0 0.0
2015-Jul-03 16:32N 51°03' E 002°17'0 0.0
2015-Jul-03 15:29N 51°03' E 002°17'0 0.0
2015-Jul-03 14:32N 51°03' E 002°17'0 0.0
2015-Jul-03 13:29N 51°03' E 002°17'0 0.0
2015-Jul-03 12:29N 51°03' E 002°17'0 0.0
2015-Jul-03 11:29N 51°03' E 002°17'0 0.0
2015-Jul-03 10:05N 51°03' E 002°17'0 0.0
2015-Jul-03 09:32N 51°03' E 002°17'0 0.0
2015-Jul-03 08:32N 51°03' E 002°17'0 0.0
2015-Jul-03 07:32N 51°03' E 002°17'0 0.0
2015-Jul-03 06:32N 51°03' E 002°17'0 0.0
2015-Jul-03 05:32N 51°03' E 002°17'0 0.0
2015-Jul-03 04:26N 51°03' E 002°17'0 0.0
2015-Jul-03 03:26N 51°03' E 002°17'0 0.0
2015-Jul-03 02:20N 51°03' E 002°17'0 0.0
2015-Jul-03 01:32N 51°03' E 002°17'0 0.0
2015-Jul-03 00:14N 51°03' E 002°17'0 0.0
2015-Jul-02 18:23N 51°03' E 002°17'0 0.0
2015-Jul-02 16:32N 51°03' E 002°17'0 0.0
2015-Jul-02 15:29N 51°03' E 002°17'0 0.0
2015-Jul-02 14:29N 51°03' E 002°17'0 0.0
2015-Jul-02 13:32N 51°03' E 002°17'0 0.0
2015-Jul-02 12:29N 51°03' E 002°17'0 0.0
2015-Jul-02 11:32N 51°03' E 002°17'0 0.0
2015-Jul-02 10:32N 51°03' E 002°17'0 0.0
2015-Jul-02 09:32N 51°03' E 002°17'0 0.0
2015-Jul-02 08:32N 51°03' E 002°17'0 0.0
2015-Jul-02 07:32N 51°03' E 002°17'0 0.0
2015-Jul-02 06:32N 51°03' E 002°17'0 0.0
2015-Jul-02 05:32N 51°03' E 002°17'0 0.0
2015-Jul-02 04:32N 51°03' E 002°17'0 0.0
2015-Jul-02 03:32N 51°03' E 002°17'0 0.0
2015-Jul-02 02:29N 51°03' E 002°17'0 0.0
2015-Jul-01 22:08N 51°03' E 002°17'0 0.0
2015-Jul-01 20:20N 51°03' E 002°17'0 0.0
2015-Jul-01 18:23N 51°03' E 002°17'0 0.0
2015-Jul-01 16:17N 51°03' E 002°17'0 0.2
2015-Jul-01 15:06N 51°03' E 002°17'7 2.1
2015-Jul-01 11:29N 51°03' E 002°05'1111.4
2015-Jul-01 10:33N 51°03' E 001°48'0 0.5
2015-Jul-01 09:32N 51°04' E 001°48'0 0.3
2015-Jul-01 08:33N 51°04' E 001°48'0 0.0
2015-Jul-01 07:32N 51°04' E 001°48'0 0.0
2015-Jul-01 06:32N 51°04' E 001°48'0 0.0
2015-Jul-01 05:33N 51°04' E 001°48'0 0.0
2015-Jul-01 04:33N 51°04' E 001°48'0 0.0
2015-Jul-01 03:33N 51°04' E 001°48'0 0.2
2015-Jul-01 02:32N 51°04' E 001°48'0 0.1
2015-Jul-01 01:29N 51°04' E 001°48'1 0.8
2015-Jul-01 00:33N 51°04' E 001°47'6 6.3
2015-Jun-30 23:33N 51°07' E 001°39'8 7.6
2015-Jun-30 22:33N 51°14' E 001°45'1110.6
2015-Jun-30 21:33N 51°23' E 001°53'1212.4
2015-Jun-30 20:33N 51°33' E 002°06'1313.4
2015-Jun-30 19:33N 51°43' E 002°20'2013.3
2015-Jun-30 18:05N 51°58' E 002°41'1912.1
2015-Jun-30 16:30N 52°13' E 003°01'1110.9
2015-Jun-30 15:32N 52°23' E 003°05'1210.5
2015-Jun-30 14:23N 52°35' E 003°08'910.1
2015-Jun-30 13:30N 52°43' E 003°11'1010.2
2015-Jun-30 12:33N 52°53' E 003°15'1110.9
2015-Jun-30 11:32N 53°04' E 003°20'1211.6
2015-Jun-30 10:31N 53°15' E 003°26'1211.8
2015-Jun-30 09:32N 53°26' E 003°31'1111.8
2015-Jun-30 08:33N 53°37' E 003°37'1110.9
2015-Jun-30 07:33N 53°46' E 003°47'1211.3
2015-Jun-30 06:31N 53°53' E 004°03'1111.0
2015-Jun-30 05:31N 53°60' E 004°18'1111.1
2015-Jun-30 04:33N 54°09' E 004°26'1111.3
2015-Jun-30 03:33N 54°20' E 004°34'1211.5
2015-Jun-30 02:33N 54°30' E 004°43'28410.5
2015-Jun-28 23:24N 57°47' E 010°50'8 9.4
2015-Jun-28 22:33N 57°41' E 010°60'1211.5
2015-Jun-28 21:32N 57°33' E 011°16'1111.5
2015-Jun-28 20:33N 57°24' E 011°28'1111.4
2015-Jun-28 19:33N 57°13' E 011°35'1111.3
2015-Jun-28 18:33N 57°02' E 011°42'1111.3
2015-Jun-28 17:33N 56°52' E 011°49'1010.0
2015-Jun-28 16:33N 56°42' E 011°50'1211.5
2015-Jun-28 15:32N 56°32' E 011°39'7710.6
2015-Jun-28 08:14N 55°17' E 011°04'6 9.2
2015-Jun-28 07:33N 55°11' E 011°02'2811.3
2015-Jun-28 05:04N 54°44' E 010°47'510.7
2015-Jun-28 04:33N 54°39' E 010°51'1111.0
2015-Jun-28 03:33N 54°35' E 011°09'1110.8
2015-Jun-28 02:33N 54°31' E 011°27'1110.8
2015-Jun-28 01:33N 54°27' E 011°44'1110.6
2015-Jun-28 00:33N 54°26' E 012°02'9 9.2
2015-Jun-27 23:33N 54°32' E 012°14'20 9.7
2015-Jun-27 21:32N 54°46' E 012°38'4911.6
2015-Jun-27 17:19N 55°03' E 013°58'1111.2
2015-Jun-27 16:19N 55°10' E 014°13'911.6
2015-Jun-27 15:33N 55°17' E 014°23'1211.6
2015-Jun-27 14:33N 55°26' E 014°36'1010.5
2015-Jun-27 13:33N 55°27' E 014°54'1211.6
2015-Jun-27 12:33N 55°28' E 015°14'1211.6
2015-Jun-27 11:34N 55°28' E 015°35'1111.4
2015-Jun-27 10:33N 55°29' E 015°55'5711.3
2015-Jun-27 05:33N 55°31' E 017°35'1111.4
2015-Jun-27 04:33N 55°33' E 017°55'1111.4
2015-Jun-27 03:33N 55°34' E 018°15'1111.3
2015-Jun-27 02:33N 55°36' E 018°34'1110.6
2015-Jun-27 01:33N 55°36' E 018°53'1111.3
2015-Jun-27 00:33N 55°37' E 019°13'1211.6
2015-Jun-26 23:33N 55°39' E 019°33'1211.6
2015-Jun-26 22:33N 55°40' E 019°54'1211.6
2015-Jun-26 21:30N 55°41' E 020°15'1111.5
2015-Jun-26 20:33N 55°42' E 020°34'  

Dump ship's entire track history